Time;durP1;ratioP1;P1;durP2;ratioP2;P2;SDS_P1;SDS_P2;PMS_P1;PMS_P2;Temp;Humidity;BMP_temperature;BMP_pressure;BME280_temperature;BME280_humidity;BME280_pressure;Samples;Min_cycle;Max_cycle;Signal;HPM_P1;HPM_P2
2022/02/15 00:00:21;;;;;;;3.75;1.30;;;7.50;96.10;;;;;;5066146;28;20105;-59
2022/02/15 00:02:47;;;;;;;3.90;1.30;;;7.40;96.40;;;;;;5066836;28;20021;-59
2022/02/15 00:05:12;;;;;;;5.05;1.60;;;7.40;96.30;;;;;;5069499;28;20028;-58
2022/02/15 00:07:38;;;;;;;2.35;1.30;;;7.40;96.40;;;;;;5065532;28;20020;-58
2022/02/15 00:10:05;;;;;;;4.05;1.75;;;7.30;96.50;;;;;;5069568;28;20020;-58
2022/02/15 00:12:31;;;;;;;4.30;1.45;;;7.30;96.70;;;;;;5069831;28;20025;-58
2022/02/15 00:14:56;;;;;;;4.93;1.88;;;7.30;96.90;;;;;;5066157;28;20047;-58
2022/02/15 00:17:22;;;;;;;4.13;1.77;;;7.30;97.00;;;;;;5068354;28;20067;-58
2022/02/15 00:19:48;;;;;;;7.47;2.00;;;7.20;97.10;;;;;;5066383;28;20488;-58
2022/02/15 00:22:14;;;;;;;4.85;2.00;;;7.20;97.30;;;;;;5066485;28;20029;-58
2022/02/15 00:24:40;;;;;;;2.25;1.50;;;7.10;97.40;;;;;;5066496;28;20027;-58
2022/02/15 00:27:05;;;;;;;3.10;1.70;;;7.20;97.50;;;;;;5069207;28;20028;-59
2022/02/15 00:29:31;;;;;;;5.93;3.58;;;7.20;97.50;;;;;;5069699;28;20460;-58
2022/02/15 00:31:57;;;;;;;8.23;3.03;;;7.20;97.60;;;;;;5066390;28;20099;-58
2022/02/15 00:34:23;;;;;;;4.35;2.22;;;7.10;97.70;;;;;;5068680;28;20456;-58
2022/02/15 00:36:48;;;;;;;6.63;3.25;;;7.10;97.80;;;;;;5066866;28;20496;-59
2022/02/15 00:39:14;;;;;;;7.40;2.55;;;7.10;98.10;;;;;;5071176;28;20465;-59
2022/02/15 00:41:39;;;;;;;4.90;2.33;;;7.10;97.90;;;;;;5066682;28;20020;-58
2022/02/15 00:44:05;;;;;;;6.75;3.30;;;7.10;97.90;;;;;;5066265;28;20029;-58
2022/02/15 00:46:31;;;;;;;5.45;2.78;;;7.10;98.00;;;;;;5066287;28;20439;-59
2022/02/15 00:48:56;;;;;;;4.40;2.53;;;7.10;98.10;;;;;;5068572;28;20028;-59
2022/02/15 00:51:21;;;;;;;8.23;3.78;;;7.00;98.20;;;;;;5066789;28;20032;-58
2022/02/15 00:53:47;;;;;;;6.78;3.13;;;7.00;98.30;;;;;;5063415;28;20118;-58
2022/02/15 00:56:13;;;;;;;6.13;3.20;;;7.00;98.40;;;;;;5068844;28;20569;-58
2022/02/15 00:58:38;;;;;;;4.60;2.80;;;7.00;98.40;;;;;;5069187;28;20028;-58
2022/02/15 01:01:04;;;;;;;5.18;3.10;;;7.00;98.50;;;;;;5068882;28;20027;-58
2022/02/15 01:03:30;;;;;;;6.45;3.38;;;7.00;98.60;;;;;;5065825;28;20028;-58
2022/02/15 01:05:57;;;;;;;5.13;2.78;;;7.00;98.60;;;;;;5065456;28;20021;-58
2022/02/15 01:08:22;;;;;;;6.40;3.42;;;7.00;98.70;;;;;;5062662;28;20024;-59
2022/02/15 01:10:48;;;;;;;5.20;2.90;;;7.00;98.80;;;;;;5078825;28;20066;-58
2022/02/15 01:13:14;;;;;;;6.40;3.00;;;7.00;98.80;;;;;;5074209;28;20024;-58
2022/02/15 01:15:40;;;;;;;7.45;3.05;;;7.00;99.00;;;;;;5068516;28;20039;-58
2022/02/15 01:18:05;;;;;;;7.10;3.13;;;6.90;99.00;;;;;;5071221;28;20028;-58
2022/02/15 01:20:31;;;;;;;6.22;2.97;;;6.90;99.10;;;;;;5063164;28;20508;-58
2022/02/15 01:22:57;;;;;;;7.22;3.22;;;6.90;99.20;;;;;;5068503;28;20028;-59
2022/02/15 01:25:23;;;;;;;7.30;3.28;;;6.80;99.20;;;;;;5068764;28;20032;-58
2022/02/15 01:27:49;;;;;;;5.85;2.75;;;6.90;99.30;;;;;;5064789;28;20025;-58
2022/02/15 01:30:15;;;;;;;8.90;3.28;;;6.90;99.40;;;;;;5072158;28;20017;-58
2022/02/15 01:32:40;;;;;;;6.20;3.67;;;6.90;99.40;;;;;;5069610;28;20018;-58
2022/02/15 01:35:06;;;;;;;5.63;3.10;;;6.80;99.40;;;;;;5069562;28;20021;-58
2022/02/15 01:37:32;;;;;;;6.88;3.10;;;6.80;99.50;;;;;;5072450;28;20033;-58
2022/02/15 01:39:58;;;;;;;9.18;3.03;;;6.80;99.60;;;;;;5073790;28;20605;-58
2022/02/15 01:42:23;;;;;;;5.93;2.90;;;6.80;99.60;;;;;;5072498;28;20119;-59
2022/02/15 01:44:49;;;;;;;5.20;2.53;;;6.80;99.70;;;;;;5067911;28;20029;-59
2022/02/15 01:47:29;;;;;;;4.50;2.22;;;6.80;99.80;;;;;;5071606;28;20028;-58
2022/02/15 01:49:55;;;;;;;;;;;6.80;99.80;;;;;;5069688;28;20035;-58
2022/02/15 01:52:21;;;;;;;5.60;2.03;;;6.80;99.80;;;;;;5071573;28;19916;-58
2022/02/15 01:54:53;;;;;;;4.72;1.92;;;6.70;99.90;;;;;;5065044;28;20021;-58
2022/02/15 01:57:18;;;;;;;4.40;1.88;;;6.70;99.90;;;;;;5069413;28;20016;-58
2022/02/15 01:59:45;;;;;;;4.65;1.70;;;6.80;99.90;;;;;;5069267;28;20020;-58
2022/02/15 02:02:11;;;;;;;4.95;1.67;;;6.80;99.90;;;;;;5068204;28;20021;-59
2022/02/15 02:07:21;;;;;;;4.85;1.80;;;6.80;99.90;;;;;;5068548;28;20470;-58
2022/02/15 02:09:46;;;;;;;4.55;1.50;;;6.80;99.90;;;;;;5069156;28;20020;-58
2022/02/15 02:12:13;;;;;;;3.35;0.88;;;6.80;99.90;;;;;;5066318;28;20069;-58
2022/02/15 02:14:38;;;;;;;2.90;0.90;;;6.80;99.90;;;;;;5072088;28;20016;-58
2022/02/15 02:17:04;;;;;;;1.92;0.90;;;6.70;99.90;;;;;;5074038;28;20395;-58
2022/02/15 02:19:29;;;;;;;3.67;1.00;;;6.80;99.90;;;;;;5069036;28;20099;-58
2022/02/15 02:21:55;;;;;;;3.78;1.05;;;6.80;99.90;;;;;;5071911;28;20061;-59
2022/02/15 02:24:21;;;;;;;2.50;0.90;;;6.70;99.90;;;;;;5068911;28;20092;-58
2022/02/15 02:26:49;;;;;;;3.05;1.00;;;6.80;99.90;;;;;;5068907;28;20442;-58
2022/02/15 02:29:14;;;;;;;2.75;0.93;;;6.80;99.90;;;;;;5071699;28;20044;-59
2022/02/15 02:31:43;;;;;;;4.40;1.20;;;6.80;99.90;;;;;;5071890;28;20013;-58
2022/02/15 02:34:09;;;;;;;3.28;1.42;;;6.80;99.90;;;;;;5071796;28;20515;-58
2022/02/15 02:36:46;;;;;;;3.55;0.98;;;6.90;99.90;;;;;;5065927;28;20024;-58
2022/02/15 02:39:12;;;;;;;2.47;0.88;;;6.90;99.90;;;;;;5068081;28;20127;-58
2022/02/15 02:41:37;;;;;;;3.33;1.35;;;6.90;99.90;;;;;;5071668;28;20109;-58
2022/02/15 02:44:03;;;;;;;2.17;0.98;;;6.90;99.90;;;;;;5071713;28;20512;-58
2022/02/15 02:46:29;;;;;;;3.63;1.27;;;6.90;99.90;;;;;;5069280;28;20044;-58
2022/02/15 02:48:55;;;;;;;5.47;1.30;;;6.90;99.90;;;;;;5068559;28;20017;-58
2022/02/15 02:51:20;;;;;;;2.67;1.20;;;6.90;99.90;;;;;;5071126;28;20035;-58
2022/02/15 02:53:46;;;;;;;3.15;1.40;;;6.90;99.90;;;;;;5068402;28;20028;-58
2022/02/15 02:56:11;;;;;;;5.22;1.45;;;6.90;99.90;;;;;;5080057;28;20515;-58
2022/02/15 02:58:37;;;;;;;3.60;1.52;;;6.90;99.90;;;;;;5080005;28;20051;-58
2022/02/15 03:01:03;;;;;;;3.97;1.38;;;6.90;99.90;;;;;;5068424;28;20543;-58
2022/02/15 03:03:28;;;;;;;5.90;1.73;;;6.90;99.90;;;;;;5068359;28;20476;-59
2022/02/15 03:05:54;;;;;;;4.40;1.65;;;6.90;99.90;;;;;;5065359;28;20028;-58
2022/02/15 03:08:20;;;;;;;3.25;1.48;;;6.90;99.90;;;;;;5065618;28;20442;-58
2022/02/15 03:10:45;;;;;;;2.47;1.60;;;6.90;99.90;;;;;;5061327;28;20017;-58
2022/02/15 03:13:11;;;;;;;4.55;1.75;;;7.00;99.90;;;;;;5070913;28;20194;-58
2022/02/15 03:15:36;;;;;;;2.97;1.15;;;7.00;99.90;;;;;;5070730;28;20381;-58
2022/02/15 03:18:02;;;;;;;3.40;1.40;;;7.00;99.90;;;;;;5070226;28;20099;-58
2022/02/15 03:20:27;;;;;;;4.07;1.85;;;7.00;99.90;;;;;;5067874;28;20055;-58
2022/02/15 03:22:53;;;;;;;6.85;1.90;;;7.00;99.90;;;;;;5063625;28;20044;-58
2022/02/15 03:25:18;;;;;;;6.20;2.63;;;7.00;99.90;;;;;;5063028;28;20033;-58
2022/02/15 03:27:44;;;;;;;3.92;1.80;;;7.00;99.90;;;;;;5068311;28;20032;-58
2022/02/15 03:30:10;;;;;;;4.65;2.53;;;7.00;99.90;;;;;;5067875;28;20043;-58
2022/02/15 03:32:36;;;;;;;3.90;2.10;;;7.10;99.90;;;;;;5067566;28;20494;-58
2022/02/15 03:35:02;;;;;;;3.63;1.55;;;7.00;99.90;;;;;;5070999;28;20103;-59
2022/02/15 03:37:28;;;;;;;3.55;2.08;;;7.00;99.90;;;;;;5064777;28;20107;-58
2022/02/15 03:39:53;;;;;;;5.80;2.33;;;7.00;99.90;;;;;;5067565;28;21188;-58
2022/02/15 03:45:03;;;;;;;4.28;2.42;;;7.00;99.90;;;;;;5070135;28;20090;-58
2022/02/15 03:47:29;;;;;;;7.50;2.42;;;7.00;99.90;;;;;;5068921;28;20049;-59
2022/02/15 03:49:54;;;;;;;3.92;2.30;;;6.90;99.90;;;;;;5066350;28;20032;-58
2022/02/15 03:52:20;;;;;;;6.07;2.65;;;6.90;99.90;;;;;;5068247;28;20012;-58
2022/02/15 03:54:45;;;;;;;3.92;2.45;;;6.90;99.90;;;;;;5067150;28;20024;-58
2022/02/15 03:57:11;;;;;;;5.63;2.72;;;6.90;99.90;;;;;;5064401;28;20388;-58
2022/02/15 03:59:36;;;;;;;4.72;2.45;;;6.90;99.90;;;;;;5069607;28;20116;-58
2022/02/15 04:02:02;;;;;;;5.32;2.85;;;7.00;99.90;;;;;;5064334;28;20043;-58
2022/02/15 04:04:28;;;;;;;5.97;2.92;;;6.90;99.90;;;;;;5068299;28;20108;-59
2022/02/15 04:06:54;;;;;;;6.25;3.08;;;6.90;99.90;;;;;;5069667;28;20032;-58
2022/02/15 04:09:19;;;;;;;5.65;3.00;;;6.90;99.90;;;;;;5065885;28;20029;-58
2022/02/15 04:11:45;;;;;;;7.38;3.70;;;6.90;99.90;;;;;;5062214;28;20033;-58
2022/02/15 04:14:10;;;;;;;6.68;3.55;;;6.90;99.90;;;;;;5069877;28;20104;-58
2022/02/15 04:16:37;;;;;;;4.93;3.33;;;6.90;99.90;;;;;;5069413;28;20071;-58
2022/02/15 04:19:03;;;;;;;9.02;4.18;;;6.90;99.90;;;;;;5064340;28;20101;-58
2022/02/15 04:21:29;;;;;;;7.95;4.72;;;6.90;99.90;;;;;;5064032;28;20491;-58
2022/02/15 04:23:54;;;;;;;7.70;5.30;;;6.90;99.90;;;;;;5063760;28;20033;-58
2022/02/15 04:26:20;;;;;;;7.82;4.72;;;6.90;99.90;;;;;;5063545;28;20031;-58
2022/02/15 04:28:46;;;;;;;9.90;5.22;;;6.90;99.90;;;;;;5064473;28;20028;-59
2022/02/15 04:31:11;;;;;;;11.27;6.85;;;6.80;99.90;;;;;;5066528;28;20027;-58
2022/02/15 04:33:37;;;;;;;10.80;6.47;;;6.80;99.90;;;;;;5066260;28;20028;-58
2022/02/15 04:36:03;;;;;;;10.98;7.35;;;6.80;99.90;;;;;;5066184;28;20471;-58
2022/02/15 04:38:28;;;;;;;14.00;8.30;;;6.90;99.90;;;;;;5063531;28;20488;-58
2022/02/15 04:40:54;;;;;;;10.10;7.35;;;6.80;99.90;;;;;;5066593;28;20874;-58
2022/02/15 04:43:19;;;;;;;13.40;8.05;;;6.90;99.90;;;;;;5069192;28;20024;-58
2022/02/15 04:45:45;;;;;;;14.40;8.70;;;6.80;99.90;;;;;;5064878;28;20028;-58
2022/02/15 04:48:10;;;;;;;11.50;7.75;;;6.80;99.90;;;;;;5069213;28;20032;-58
2022/02/15 04:50:36;;;;;;;13.30;8.70;;;6.80;99.90;;;;;;5068746;28;20020;-58
2022/02/15 04:53:01;;;;;;;14.75;8.63;;;6.90;99.90;;;;;;5068747;28;20396;-58
2022/02/15 04:55:27;;;;;;;12.13;8.10;;;6.80;99.90;;;;;;5065950;28;20117;-58
2022/02/15 04:57:52;;;;;;;12.95;8.27;;;6.80;99.90;;;;;;5064155;28;20407;-58
2022/02/15 05:00:18;;;;;;;13.02;10.25;;;6.80;99.90;;;;;;5068575;28;20028;-58
2022/02/15 05:02:43;;;;;;;14.25;10.13;;;6.80;99.90;;;;;;5064699;28;20035;-58
2022/02/15 05:05:09;;;;;;;15.57;10.05;;;6.80;99.90;;;;;;5065034;28;20025;-58
2022/02/15 05:07:35;;;;;;;18.85;10.43;;;6.80;99.90;;;;;;5064710;28;20105;-58
2022/02/15 05:10:03;;;;;;;17.52;11.23;;;6.80;99.90;;;;;;5056156;28;20369;-58
2022/02/15 05:12:30;;;;;;;15.25;10.48;;;6.80;99.90;;;;;;5068732;28;20021;-58
2022/02/15 05:14:56;;;;;;;20.35;11.73;;;6.80;99.90;;;;;;5064411;28;20441;-58
2022/02/15 05:17:21;;;;;;;15.10;11.23;;;6.80;99.90;;;;;;5066065;28;20146;-58
2022/02/15 05:19:47;;;;;;;14.60;12.02;;;6.80;99.90;;;;;;5061087;28;20041;-59
2022/02/15 05:22:12;;;;;;;19.73;12.57;;;6.80;99.90;;;;;;5068896;28;20024;-58
2022/02/15 05:24:38;;;;;;;23.25;13.55;;;6.80;99.90;;;;;;5062187;28;20021;-58
2022/02/15 05:27:04;;;;;;;17.48;12.52;;;6.80;99.90;;;;;;5062886;28;20559;-58
2022/02/15 05:29:29;;;;;;;16.52;10.63;;;6.80;99.90;;;;;;5068973;28;20039;-58
2022/02/15 05:31:55;;;;;;;19.48;13.00;;;6.80;99.90;;;;;;5068861;28;20028;-58
2022/02/15 05:34:20;;;;;;;18.13;13.05;;;6.80;99.90;;;;;;5063065;28;20025;-58
2022/02/15 05:36:46;;;;;;;18.92;14.00;;;6.80;99.90;;;;;;5064343;28;20020;-59
2022/02/15 05:39:12;;;;;;;22.42;15.48;;;6.80;99.90;;;;;;5067392;28;20024;-58
2022/02/15 05:41:37;;;;;;;22.98;14.52;;;6.80;99.90;;;;;;5069876;28;20028;-58
2022/02/15 05:44:03;;;;;;;19.38;13.80;;;6.70;99.90;;;;;;5070890;28;20328;-58
2022/02/15 05:46:28;;;;;;;21.25;13.85;;;6.70;99.90;;;;;;5071630;28;20404;-58
2022/02/15 05:48:54;;;;;;;19.63;13.88;;;6.70;99.90;;;;;;5069365;28;20032;-58
2022/02/15 05:51:19;;;;;;;19.65;14.57;;;6.80;99.90;;;;;;5067969;28;20029;-59
2022/02/15 05:53:45;;;;;;;19.83;13.27;;;6.80;99.90;;;;;;5066361;28;20070;-58
2022/02/15 05:56:10;;;;;;;21.45;13.82;;;6.80;99.90;;;;;;5068411;28;20105;-58
2022/02/15 05:58:37;;;;;;;19.83;14.35;;;6.80;99.90;;;;;;5062852;28;20082;-59
2022/02/15 06:01:03;;;;;;;21.25;15.07;;;6.80;99.90;;;;;;5068225;28;20025;-58
2022/02/15 06:06:13;;;;;;;23.98;15.48;;;6.80;99.90;;;;;;5064672;28;20494;-58
2022/02/15 06:08:38;;;;;;;22.73;15.02;;;6.80;99.90;;;;;;5065767;28;20021;-58
2022/02/15 06:11:04;;;;;;;22.83;16.33;;;6.80;99.90;;;;;;5065604;28;20582;-58
2022/02/15 06:13:30;;;;;;;21.48;15.13;;;6.80;99.90;;;;;;5066091;28;20036;-58
2022/02/15 06:15:56;;;;;;;23.70;16.15;;;6.80;99.90;;;;;;5069144;28;20566;-58
2022/02/15 06:18:22;;;;;;;23.88;16.80;;;6.80;99.90;;;;;;5071677;28;20028;-58
2022/02/15 06:20:47;;;;;;;24.50;15.73;;;6.80;99.90;;;;;;5069096;28;20483;-58
2022/02/15 06:23:13;;;;;;;24.35;15.95;;;6.70;99.90;;;;;;5071942;28;20032;-58
2022/02/15 06:25:39;;;;;;;21.33;15.57;;;6.70;99.90;;;;;;5068766;28;20564;-58
2022/02/15 06:28:04;;;;;;;22.02;16.13;;;6.70;99.90;;;;;;5071734;28;20029;-58
2022/02/15 06:30:30;;;;;;;20.90;14.73;;;6.70;99.90;;;;;;5069980;28;20024;-59
2022/02/15 06:32:56;;;;;;;21.25;14.65;;;6.80;99.90;;;;;;5069065;28;20671;-58
2022/02/15 06:35:21;;;;;;;24.25;15.07;;;6.80;99.90;;;;;;5054103;28;20048;-58
2022/02/15 06:37:50;;;;;;;20.58;15.27;;;6.80;99.90;;;;;;5066375;28;20488;-59
2022/02/15 06:40:16;;;;;;;22.33;15.98;;;6.80;99.90;;;;;;5072440;28;20443;-58
2022/02/15 06:42:43;;;;;;;23.73;14.63;;;6.80;99.90;;;;;;5068571;28;20499;-58
2022/02/15 06:45:09;;;;;;;18.50;13.98;;;6.80;99.90;;;;;;5068293;28;20090;-58
2022/02/15 06:47:35;;;;;;;21.88;15.02;;;6.80;99.90;;;;;;5071237;28;20527;-58
2022/02/15 06:50:02;;;;;;;20.40;14.15;;;6.80;99.90;;;;;;5071346;28;20388;-58
2022/02/15 06:52:28;;;;;;;23.85;14.10;;;6.80;99.90;;;;;;5071075;28;20455;-59
2022/02/15 06:54:53;;;;;;;18.95;13.32;;;6.80;99.90;;;;;;5071271;28;20112;-58
2022/02/15 06:57:19;;;;;;;26.30;14.60;;;6.80;99.90;;;;;;5064180;28;20060;-58
2022/02/15 06:59:45;;;;;;;20.75;14.18;;;6.80;99.90;;;;;;5071003;28;20459;-58
2022/02/15 07:02:11;;;;;;;23.10;13.95;;;6.80;99.90;;;;;;5071000;28;20034;-58
2022/02/15 07:04:37;;;;;;;23.40;14.10;;;6.90;99.90;;;;;;5070852;28;20460;-58
2022/02/15 07:07:02;;;;;;;22.05;14.15;;;6.90;99.90;;;;;;5070641;28;20032;-59
2022/02/15 07:09:28;;;;;;;22.10;14.70;;;6.90;99.90;;;;;;5070366;28;20024;-58
2022/02/15 07:11:54;;;;;;;19.92;13.15;;;6.80;99.90;;;;;;5068434;28;20395;-58
2022/02/15 07:14:19;;;;;;;26.73;13.85;;;6.90;99.90;;;;;;5070599;28;20025;-58
2022/02/15 07:16:45;;;;;;;22.05;12.90;;;6.90;99.90;;;;;;5072254;28;20561;-58
2022/02/15 07:19:11;;;;;;;20.50;12.35;;;6.90;99.90;;;;;;5086298;28;20153;-58
2022/02/15 07:21:37;;;;;;;23.45;13.32;;;6.90;99.90;;;;;;5065224;28;20116;-58
2022/02/15 07:24:04;;;;;;;22.58;13.15;;;6.90;99.90;;;;;;5069230;28;20032;-58
2022/02/15 07:26:30;;;;;;;18.95;11.68;;;6.90;99.90;;;;;;5064539;28;20111;-58
2022/02/15 07:28:56;;;;;;;22.25;11.65;;;6.90;99.90;;;;;;5062634;28;20115;-58
2022/02/15 07:31:22;;;;;;;17.58;10.70;;;6.90;99.90;;;;;;5069924;28;20522;-58
2022/02/15 07:33:47;;;;;;;17.98;11.80;;;7.00;99.90;;;;;;5071386;28;20476;-58
2022/02/15 07:36:13;;;;;;;15.65;9.48;;;7.00;99.90;;;;;;5071134;28;20032;-58
2022/02/15 07:38:39;;;;;;;18.67;9.38;;;7.00;99.90;;;;;;5067227;28;20024;-58
2022/02/15 07:41:05;;;;;;;17.25;9.38;;;7.00;99.90;;;;;;5069046;28;20029;-58
2022/02/15 07:43:31;;;;;;;15.73;8.95;;;7.00;99.90;;;;;;5069666;28;20028;-58
2022/02/15 07:45:57;;;;;;;15.30;8.25;;;7.10;99.90;;;;;;5070193;28;20028;-58
2022/02/15 07:48:22;;;;;;;14.73;8.07;;;7.10;99.90;;;;;;5069101;28;20124;-58
2022/02/15 07:50:48;;;;;;;13.07;7.25;;;7.10;99.90;;;;;;5070763;28;20459;-58
2022/02/15 07:53:14;;;;;;;11.60;6.55;;;7.10;99.90;;;;;;5069473;28;20016;-58
2022/02/15 07:55:41;;;;;;;15.60;6.50;;;7.20;99.90;;;;;;5070804;28;20025;-59
2022/02/15 07:58:06;;;;;;;15.02;6.65;;;7.20;99.90;;;;;;5064548;28;20025;-58
2022/02/15 08:00:32;;;;;;;14.88;6.72;;;7.20;99.90;;;;;;5070710;28;20094;-58
2022/02/15 08:02:58;;;;;;;13.90;6.68;;;7.20;99.90;;;;;;5070786;28;20024;-58
2022/02/15 08:05:23;;;;;;;16.75;7.70;;;7.20;99.90;;;;;;5070015;28;20036;-58
2022/02/15 08:07:53;;;;;;;20.58;8.10;;;7.30;99.90;;;;;;5055238;28;21469;-58
2022/02/15 08:10:20;;;;;;;18.33;7.65;;;7.30;99.90;;;;;;5039652;28;20029;-58
2022/02/15 08:12:55;;;;;;;16.67;8.52;;;7.30;99.90;;;;;;5039005;28;20103;-58
2022/02/15 08:15:30;;;;;;;16.55;7.63;;;7.30;99.90;;;;;;5065140;28;20103;-58
2022/02/15 08:17:57;;;;;;;14.18;7.53;;;7.40;99.90;;;;;;5071091;28;20023;-58
2022/02/15 08:20:23;;;;;;;11.55;7.40;;;7.40;99.90;;;;;;5067502;28;20043;-58
2022/02/15 08:22:50;;;;;;;14.73;8.30;;;7.40;99.90;;;;;;5064602;28;20020;-58
2022/02/15 08:25:15;;;;;;;14.93;7.90;;;7.50;99.90;;;;;;5067927;28;20075;-58
2022/02/15 08:27:41;;;;;;;11.85;8.52;;;7.50;99.90;;;;;;5068163;28;20500;-58
2022/02/15 08:30:07;;;;;;;13.18;7.47;;;7.50;99.90;;;;;;5069385;28;20102;-58
2022/02/15 08:32:33;;;;;;;20.90;8.00;;;7.50;99.90;;;;;;5068917;28;20024;-58
2022/02/15 08:34:58;;;;;;;15.45;7.15;;;7.50;99.90;;;;;;5065891;28;20040;-58
2022/02/15 08:37:24;;;;;;;13.38;6.47;;;7.50;99.90;;;;;;5065634;28;20067;-58
2022/02/15 08:39:50;;;;;;;14.98;6.88;;;7.50;99.90;;;;;;5068938;28;20111;-58
2022/02/15 08:42:16;;;;;;;14.32;6.57;;;7.60;99.90;;;;;;5068993;28;20035;-58
2022/02/15 08:44:41;;;;;;;12.95;6.20;;;7.60;99.90;;;;;;5069621;28;20036;-59
2022/02/15 08:47:08;;;;;;;15.82;7.05;;;7.60;99.90;;;;;;5070148;28;20028;-58
2022/02/15 08:49:34;;;;;;;13.55;6.28;;;7.60;99.90;;;;;;5069741;28;20025;-58
2022/02/15 08:52:00;;;;;;;15.48;6.30;;;7.60;99.90;;;;;;5069095;28;20036;-59
2022/02/15 08:54:25;;;;;;;13.93;6.22;;;7.60;99.90;;;;;;5069752;28;20078;-58
2022/02/15 08:56:51;;;;;;;11.80;5.47;;;7.60;99.90;;;;;;5069497;28;20085;-59
2022/02/15 08:59:16;;;;;;;13.73;4.65;;;7.70;99.90;;;;;;5065749;28;20103;-58
2022/02/15 09:01:42;;;;;;;11.93;4.43;;;7.70;99.90;;;;;;5069965;28;20070;-58
2022/02/15 09:04:08;;;;;;;9.23;4.15;;;7.70;99.90;;;;;;5067832;28;20055;-59
2022/02/15 09:06:35;;;;;;;10.98;4.85;;;7.80;99.90;;;;;;5069807;28;20059;-58
2022/02/15 09:09:00;;;;;;;11.23;4.80;;;7.90;99.90;;;;;;5066999;28;20089;-59
2022/02/15 09:11:26;;;;;;;11.82;4.45;;;8.00;99.90;;;;;;5065433;28;20029;-58
2022/02/15 09:13:52;;;;;;;11.43;4.20;;;8.00;99.90;;;;;;5049568;28;20496;-59
2022/02/15 09:16:17;;;;;;;12.30;4.45;;;8.00;99.90;;;;;;5049622;28;20122;-58
2022/02/15 09:18:43;;;;;;;10.90;4.38;;;8.10;99.90;;;;;;5084067;28;20059;-58
2022/02/15 09:21:08;;;;;;;12.77;5.10;;;8.10;99.90;;;;;;5090038;28;20028;-58
2022/02/15 09:23:34;;;;;;;11.50;4.68;;;8.10;99.90;;;;;;5090170;28;20557;-58
2022/02/15 09:25:59;;;;;;;9.35;3.53;;;8.20;99.90;;;;;;5072303;28;20094;-58
2022/02/15 09:28:26;;;;;;;10.98;4.25;;;8.20;99.90;;;;;;5069503;28;20024;-58
2022/02/15 09:30:54;;;;;;;11.43;3.92;;;8.40;99.90;;;;;;5069488;28;20025;-58
2022/02/15 09:33:21;;;;;;;12.32;4.45;;;8.50;99.90;;;;;;5069245;28;20024;-58
2022/02/15 09:35:46;;;;;;;11.23;4.53;;;8.60;99.90;;;;;;5068253;28;20579;-58
2022/02/15 09:38:12;;;;;;;8.45;3.40;;;8.60;99.90;;;;;;5069360;28;20128;-59
2022/02/15 09:40:38;;;;;;;7.47;2.70;;;8.60;99.90;;;;;;5069705;28;20021;-58
2022/02/15 09:43:05;;;;;;;8.88;2.47;;;8.60;99.60;;;;;;5069460;28;20040;-58
2022/02/15 09:45:32;;;;;;;7.82;1.92;;;8.60;99.20;;;;;;5069509;28;20457;-58
2022/02/15 09:48:02;;;;;;;6.85;1.70;;;8.50;98.30;;;;;;5068898;28;20036;-58
2022/02/15 09:50:32;;;;;;;8.13;1.60;;;8.50;97.60;;;;;;5072973;28;20032;-58
2022/02/15 09:52:59;;;;;;;8.00;1.73;;;8.40;97.30;;;;;;5073220;28;20064;-58
2022/02/15 09:55:25;;;;;;;5.50;1.35;;;8.60;97.40;;;;;;5073540;28;20381;-58
2022/02/15 09:57:51;;;;;;;8.52;1.98;;;8.60;96.80;;;;;;5073242;28;20471;-58
2022/02/15 10:00:21;;;;;;;4.90;1.20;;;8.70;96.40;;;;;;5072746;28;20035;-58
2022/02/15 10:02:47;;;;;;;5.38;1.88;;;8.80;96.10;;;;;;5072904;28;20103;-58
2022/02/15 10:05:15;;;;;;;5.15;0.90;;;8.80;95.40;;;;;;5072948;28;20040;-58
2022/02/15 10:07:56;;;;;;;6.50;1.27;;;8.90;95.00;;;;;;5072894;28;20032;-58
2022/02/15 10:10:33;;;;;;;4.80;1.02;;;8.90;94.30;;;;;;5072773;28;20016;-58
2022/02/15 10:13:03;;;;;;;8.65;1.70;;;8.80;94.10;;;;;;5072865;28;20025;-58
2022/02/15 10:15:34;;;;;;;8.63;1.33;;;8.70;94.40;;;;;;5072482;28;20031;-59
2022/02/15 10:18:06;;;;;;;7.88;1.45;;;8.80;94.20;;;;;;5082275;28;20438;-59
2022/02/15 10:20:33;;;;;;;7.93;1.40;;;8.80;94.00;;;;;;5062478;28;20048;-58
2022/02/15 10:23:33;;;;;;;5.22;1.70;;;9.10;93.90;;;;;;5072508;28;20030;-58
2022/02/15 10:25:59;;;;;;;10.40;1.60;;;9.60;93.40;;;;;;5050008;28;20111;-58
2022/02/15 10:28:26;;;;;;;3.60;1.00;;;10.00;93.70;;;;;;5071338;28;20148;-58
2022/02/15 10:30:57;;;;;;;3.53;1.13;;;11.00;93.20;;;;;;5071698;28;20033;-59
2022/02/15 10:33:34;;;;;;;5.60;1.15;;;13.80;91.30;;;;;;5067919;28;20136;-59
2022/02/15 10:36:05;;;;;;;8.73;1.33;;;16.70;81.10;;;;;;5068458;28;20020;-59
2022/02/15 10:38:38;;;;;;;4.95;1.33;;;18.20;68.10;;;;;;5073462;28;20024;-59
2022/02/15 10:41:15;;;;;;;5.38;1.10;;;19.20;59.80;;;;;;5074297;28;20020;-59
2022/02/15 10:43:44;;;;;;;7.70;1.27;;;20.80;56.20;;;;;;5075097;28;20020;-59
2022/02/15 10:46:11;;;;;;;4.15;1.25;;;21.60;52.10;;;;;;5074309;28;20028;-59
2022/02/15 10:48:37;;;;;;;4.47;1.27;;;22.60;51.00;;;;;;5074748;28;20078;-59
2022/02/15 10:51:03;;;;;;;3.00;0.80;;;24.00;47.70;;;;;;5049624;28;20373;-57
2022/02/15 10:53:30;;;;;;;6.70;0.98;;;24.40;45.50;;;;;;5049613;28;20049;-57
2022/02/15 10:55:57;;;;;;;4.30;0.90;;;25.30;43.90;;;;;;5055010;28;20045;-57
2022/02/15 10:58:24;;;;;;;5.82;1.55;;;25.90;43.70;;;;;;5055083;28;20369;-57
2022/02/15 11:00:51;;;;;;;4.70;1.45;;;26.30;40.10;;;;;;5054466;28;20032;-57
2022/02/15 11:03:20;;;;;;;3.13;0.90;;;27.10;39.50;;;;;;5054722;28;20048;-57
2022/02/15 11:05:45;;;;;;;4.55;1.05;;;27.50;37.70;;;;;;5054644;28;20108;-58
2022/02/15 11:08:12;;;;;;;4.80;1.20;;;26.60;38.10;;;;;;5054604;28;20113;-57
2022/02/15 11:11:08;;;;;;;5.75;1.10;;;25.10;38.10;;;;;;5071269;28;20428;-57
2022/02/15 11:13:35;;;;;;;5.03;1.27;;;23.30;41.90;;;;;;5074297;28;20429;-57
2022/02/15 11:16:03;;;;;;;5.40;1.13;;;22.40;41.90;;;;;;5094778;28;20028;-57
2022/02/15 11:18:31;;;;;;;6.33;1.00;;;22.30;41.50;;;;;;5070213;28;20078;-57
2022/02/15 11:20:58;;;;;;;5.57;1.38;;;22.70;41.00;;;;;;5071458;28;20021;-58
2022/02/15 11:23:29;;;;;;;3.22;0.98;;;22.60;40.50;;;;;;5076672;28;20119;-57
2022/02/15 11:26:23;;;;;;;5.47;1.13;;;21.30;41.60;;;;;;5069977;28;20021;-56
2022/02/15 11:28:56;;;;;;;4.32;1.35;;;19.80;43.60;;;;;;5070173;28;20424;-57
2022/02/15 11:31:40;;;;;;;3.90;1.10;;;18.40;45.90;;;;;;5076611;28;20066;-57
2022/02/15 11:34:08;;;;;;;4.20;0.95;;;18.60;47.90;;;;;;5071241;28;20027;-57
2022/02/15 11:36:54;;;;;;;7.25;1.42;;;20.80;45.80;;;;;;5071273;28;20024;-57
2022/02/15 11:39:20;;;;;;;5.60;1.00;;;22.80;41.10;;;;;;5069171;28;20038;-57
2022/02/15 11:41:57;;;;;;;4.50;0.90;;;21.90;40.20;;;;;;5073634;28;20503;-57
2022/02/15 11:44:31;;;;;;;6.20;1.25;;;21.70;40.10;;;;;;5074005;28;20174;-57
2022/02/15 11:47:12;;;;;;;4.35;1.10;;;21.10;42.10;;;;;;5089721;28;20467;-61
2022/02/15 11:49:58;;;;;;;4.50;1.15;;;20.50;43.40;;;;;;5073908;28;20039;-57
2022/02/15 11:52:25;;;;;;;3.78;0.88;;;19.80;44.90;;;;;;5073524;28;20013;-56
2022/02/15 11:54:51;;;;;;;2.35;0.80;;;19.40;44.80;;;;;;5073306;28;20039;-57
2022/02/15 11:57:17;;;;;;;5.40;1.40;;;18.40;45.90;;;;;;5072560;28;20016;-57
2022/02/15 11:59:52;;;;;;;3.50;0.93;;;17.80;47.50;;;;;;5070104;28;20033;-57
2022/02/15 12:02:19;;;;;;;3.83;1.10;;;17.90;47.90;;;;;;5070817;28;20021;-57
2022/02/15 12:04:53;;;;;;;4.25;1.13;;;18.50;47.80;;;;;;5071181;28;20021;-57
2022/02/15 12:07:24;;;;;;;4.53;1.10;;;18.80;45.70;;;;;;5072045;28;20032;-57
2022/02/15 12:10:00;;;;;;;3.13;0.80;;;19.20;46.30;;;;;;5072033;28;20103;-56
2022/02/15 12:12:32;;;;;;;3.85;0.85;;;19.80;45.10;;;;;;5061272;28;20025;-57
2022/02/15 12:15:00;;;;;;;2.58;0.88;;;20.40;44.10;;;;;;5072079;28;20016;-57
2022/02/15 12:17:27;;;;;;;3.13;0.80;;;20.30;42.80;;;;;;5077175;28;20431;-57
2022/02/15 12:19:57;;;;;;;3.35;1.00;;;20.40;44.00;;;;;;5071359;28;20075;-57
2022/02/15 12:22:24;;;;;;;4.43;1.00;;;21.30;43.00;;;;;;5071854;28;20029;-57
2022/02/15 12:24:55;;;;;;;2.72;1.05;;;21.50;42.20;;;;;;5068534;28;20032;-57
2022/02/15 12:27:23;;;;;;;3.30;0.80;;;22.10;41.40;;;;;;5056933;28;20060;-57
2022/02/15 12:29:57;;;;;;;1.77;0.65;;;22.20;39.90;;;;;;5071327;28;20107;-57
2022/02/15 12:32:27;;;;;;;4.47;0.88;;;21.70;39.80;;;;;;5071848;28;20055;-57
2022/02/15 12:34:53;;;;;;;4.35;0.95;;;21.80;40.20;;;;;;5072309;28;20016;-57
2022/02/15 12:37:27;;;;;;;2.30;0.75;;;22.10;40.50;;;;;;5071812;28;20021;-57
2022/02/15 12:39:54;;;;;;;4.15;1.00;;;22.20;39.90;;;;;;5072963;28;20476;-57
2022/02/15 12:42:20;;;;;;;5.85;1.70;;;21.40;40.10;;;;;;5071867;28;20028;-57
2022/02/15 12:45:04;;;;;;;3.58;0.80;;;20.40;41.20;;;;;;5072330;28;20086;-57
2022/02/15 12:47:34;;;;;;;1.52;0.70;;;19.10;42.80;;;;;;5052931;28;20043;-57
2022/02/15 12:49:59;;;;;;;3.13;1.00;;;17.80;45.70;;;;;;5052669;28;20025;-57
2022/02/15 12:52:29;;;;;;;3.63;1.35;;;16.90;47.50;;;;;;5052880;28;20381;-57
2022/02/15 12:54:56;;;;;;;2.42;0.77;;;16.20;48.80;;;;;;5052654;28;20024;-57
2022/02/15 12:57:24;;;;;;;7.07;0.90;;;15.40;50.80;;;;;;5052888;28;20107;-57